Manilla, Indiana
Current Conditions -  °F | °C
As of 1:53 PM on Thursday 23 Oct 2014 (Local Time) from KGEZ Reporting Station
Clear Clear  
Wind Chill: 59°   Ceiling: Unl
Heat Index: 59°   Visibility: 10mi
Dew Point: 40°   Wind: 3mph
Humidity: 49%   Direction: NA
Pressure: 30.2"   Gusts: NA
Location:  39.57°N, 85.62°W
Report Text: KGEZ 231753Z AUTO VRB03KT 10SM CLR 15/04 A3020 RMK AO2 SLP228 I6001 T01500044 10150 20000 58020
Loading
Personal Weather Stations






























Interactive Weather Map New forecast layout! Learn more

10-Day Weather Forecast

Advertisements
Track Severe Weather on mobile